Time;durP1;ratioP1;P1;durP2;ratioP2;P2;SDS_P1;SDS_P2;PMS_P1;PMS_P2;Temp;Humidity;BMP_temperature;BMP_pressure;BME280_temperature;BME280_humidity;BME280_pressure;Samples;Min_cycle;Max_cycle;Signal;HPM_P1;HPM_P2
2023/05/09 00:03:01;;;;;;;8.67;7.87;;;16.20;34.10;;;;;;10446442;28;20224;-64
2023/05/09 00:08:05;;;;;;;9.17;8.37;;;16.20;34.00;;;;;;10447146;28;20265;-65
2023/05/09 00:13:10;;;;;;;8.07;7.37;;;16.20;34.00;;;;;;10450367;28;20306;-65
2023/05/09 00:18:14;;;;;;;5.77;5.37;;;16.20;34.40;;;;;;10450107;28;20756;-64
2023/05/09 00:23:17;;;;;;;7.97;7.37;;;16.20;33.90;;;;;;10448084;28;20233;-64
2023/05/09 00:28:21;;;;;;;7.53;6.97;;;16.10;34.00;;;;;;10447013;28;20235;-64
2023/05/09 00:33:25;;;;;;;7.13;6.60;;;16.10;34.30;;;;;;10448878;28;20236;-64
2023/05/09 00:38:29;;;;;;;6.80;6.30;;;16.00;34.10;;;;;;10451904;28;20229;-64
2023/05/09 00:43:33;;;;;;;7.93;7.30;;;16.00;34.40;;;;;;10451454;28;20741;-64
2023/05/09 00:48:36;;;;;;;8.80;8.00;;;16.00;34.70;;;;;;10444205;28;20225;-65
2023/05/09 00:53:44;;;;;;;8.20;7.57;;;16.00;34.50;;;;;;10442489;28;20237;-64
2023/05/09 00:58:49;;;;;;;8.17;7.47;;;16.00;35.10;;;;;;10449929;28;20258;-64
2023/05/09 01:03:53;;;;;;;8.73;7.97;;;16.00;34.80;;;;;;10448261;28;20239;-65
2023/05/09 01:09:02;;;;;;;8.47;7.77;;;16.00;34.60;;;;;;10452140;28;20221;-65
2023/05/09 01:14:15;;;;;;;8.47;7.67;;;16.00;35.10;;;;;;10445878;28;20597;-64
2023/05/09 01:19:39;;;;;;;8.83;8.03;;;16.00;34.90;;;;;;10448231;28;20224;-65
2023/05/09 01:25:07;;;;;;;7.00;6.40;;;16.00;35.00;;;;;;10446988;28;20233;-65
2023/05/09 01:30:12;;;;;;;8.07;7.43;;;16.00;34.90;;;;;;10400903;28;20218;-65
2023/05/09 01:35:17;;;;;;;9.07;8.23;;;16.00;34.80;;;;;;10400977;28;20233;-65
2023/05/09 01:40:21;;;;;;;9.20;7.97;;;16.00;34.70;;;;;;10401114;28;20232;-65
2023/05/09 01:45:28;;;;;;;8.40;7.70;;;15.90;35.30;;;;;;10427226;28;20225;-65
2023/05/09 01:50:32;;;;;;;7.13;6.53;;;15.90;34.80;;;;;;10437075;28;20225;-64
2023/05/09 01:55:37;;;;;;;6.67;6.17;;;15.90;34.70;;;;;;10445263;28;20295;-65
2023/05/09 02:00:43;;;;;;;8.30;7.70;;;15.90;34.90;;;;;;10451877;28;20232;-65
2023/05/09 02:05:49;;;;;;;7.83;7.23;;;15.80;35.00;;;;;;10446824;28;20228;-64
2023/05/09 02:10:52;;;;;;;7.70;7.10;;;15.90;35.20;;;;;;10423022;28;20229;-65
2023/05/09 02:15:57;;;;;;;7.57;6.87;;;15.80;34.70;;;;;;10444204;28;20237;-65
2023/05/09 02:21:01;;;;;;;7.73;7.13;;;15.80;35.00;;;;;;10444782;28;20228;-64
2023/05/09 02:26:04;;;;;;;7.13;6.53;;;15.80;34.60;;;;;;10448784;28;20231;-65
2023/05/09 02:31:09;;;;;;;7.87;7.20;;;15.80;34.70;;;;;;10441433;28;20232;-65
2023/05/09 02:36:14;;;;;;;7.50;6.90;;;15.70;34.70;;;;;;10439320;28;20228;-65
2023/05/09 02:41:17;;;;;;;7.40;6.70;;;15.70;34.60;;;;;;10446453;28;20225;-65
2023/05/09 02:46:22;;;;;;;7.63;7.03;;;15.60;34.50;;;;;;10447932;28;20228;-65
2023/05/09 02:51:25;;;;;;;7.00;6.40;;;15.60;34.50;;;;;;10442293;28;20233;-64
2023/05/09 02:56:28;;;;;;;6.50;5.80;;;15.50;34.20;;;;;;10450893;28;20239;-65
2023/05/09 03:01:33;;;;;;;6.63;6.03;;;15.50;34.10;;;;;;10444040;28;20236;-65
2023/05/09 03:06:36;;;;;;;6.90;6.37;;;15.40;34.30;;;;;;10444441;28;20231;-65
2023/05/09 03:11:39;;;;;;;6.63;5.87;;;15.40;34.20;;;;;;10444475;28;20751;-65
2023/05/09 03:16:44;;;;;;;6.23;5.73;;;15.30;34.20;;;;;;10444763;28;20770;-65
2023/05/09 03:21:47;;;;;;;6.20;5.80;;;15.30;34.30;;;;;;10449567;28;20645;-65
2023/05/09 03:26:50;;;;;;;6.60;6.03;;;15.20;34.00;;;;;;10441795;28;20232;-64
2023/05/09 03:31:54;;;;;;;6.07;5.57;;;15.20;34.00;;;;;;10444174;28;20735;-65
2023/05/09 03:36:58;;;;;;;5.73;5.33;;;15.10;34.10;;;;;;10439752;28;20225;-65
2023/05/09 03:42:01;;;;;;;5.80;5.40;;;15.00;34.00;;;;;;10448969;28;20224;-65
2023/05/09 03:47:06;;;;;;;5.77;5.33;;;15.00;34.10;;;;;;10452482;28;20283;-65
2023/05/09 03:52:09;;;;;;;5.93;5.43;;;14.90;34.30;;;;;;10446000;28;20243;-65
2023/05/09 03:57:12;;;;;;;4.83;4.43;;;14.90;34.80;;;;;;10450669;28;20229;-65
2023/05/09 04:02:17;;;;;;;5.30;4.90;;;14.90;34.00;;;;;;10448236;28;20233;-65
2023/05/09 04:07:20;;;;;;;6.77;6.17;;;14.80;34.10;;;;;;10450227;28;20323;-65
2023/05/09 04:12:23;;;;;;;7.57;6.83;;;14.70;33.90;;;;;;10441348;28;20737;-65
2023/05/09 04:17:28;;;;;;;6.90;6.33;;;14.60;34.10;;;;;;10447647;28;20228;-64
2023/05/09 04:22:31;;;;;;;5.70;5.20;;;14.50;34.50;;;;;;10440646;28;20241;-65
2023/05/09 04:27:34;;;;;;;6.47;6.00;;;14.50;34.60;;;;;;10449323;28;20233;-65
2023/05/09 04:32:39;;;;;;;5.53;5.07;;;14.50;34.70;;;;;;10446428;28;21039;-64
2023/05/09 04:37:42;;;;;;;5.90;5.40;;;14.50;35.00;;;;;;10454648;28;20322;-65
2023/05/09 04:42:45;;;;;;;6.23;5.63;;;14.50;34.80;;;;;;10447154;28;20228;-65
2023/05/09 04:47:50;;;;;;;6.33;5.70;;;14.50;34.90;;;;;;10449342;28;20534;-65
2023/05/09 04:52:53;;;;;;;5.23;4.73;;;14.50;34.90;;;;;;10448510;28;20346;-65
2023/05/09 04:57:56;;;;;;;5.50;5.00;;;14.60;34.90;;;;;;10447597;28;20243;-65
2023/05/09 05:03:01;;;;;;;5.67;5.07;;;14.60;34.80;;;;;;10444155;28;20228;-65
2023/05/09 05:08:05;;;;;;;4.87;4.50;;;14.70;35.10;;;;;;10446641;28;20944;-65
2023/05/09 05:13:08;;;;;;;5.27;4.87;;;14.70;34.90;;;;;;10445092;28;21015;-64
2023/05/09 05:18:12;;;;;;;5.53;5.03;;;14.80;34.70;;;;;;10450602;28;20344;-65
2023/05/09 05:23:15;;;;;;;5.60;4.70;;;14.80;34.50;;;;;;10446290;28;20229;-66
2023/05/09 05:28:18;;;;;;;6.70;4.57;;;14.90;35.30;;;;;;10445523;28;20221;-64
2023/05/09 05:33:23;;;;;;;4.90;4.47;;;15.00;35.40;;;;;;10441538;28;20245;-64
2023/05/09 05:38:26;;;;;;;5.20;4.80;;;15.10;35.00;;;;;;10446332;28;20229;-64
2023/05/09 05:43:29;;;;;;;4.90;4.47;;;15.20;34.60;;;;;;10446775;28;20255;-64
2023/05/09 05:48:34;;;;;;;5.20;4.80;;;15.20;34.50;;;;;;10443145;28;20228;-64
2023/05/09 05:53:37;;;;;;;4.90;4.50;;;15.30;34.40;;;;;;10444981;28;20245;-64
2023/05/09 05:58:40;;;;;;;5.30;4.90;;;15.30;34.40;;;;;;10447665;28;20861;-64
2023/05/09 06:03:45;;;;;;;5.57;4.43;;;15.30;34.20;;;;;;10442985;28;20248;-64
2023/05/09 06:08:49;;;;;;;5.80;5.30;;;15.30;33.90;;;;;;10445518;28;20384;-64
2023/05/09 06:13:53;;;;;;;5.87;5.23;;;15.20;34.10;;;;;;10450131;28;20588;-65
2023/05/09 06:18:57;;;;;;;4.60;4.20;;;15.20;34.30;;;;;;10442217;28;20232;-65
2023/05/09 06:24:01;;;;;;;5.60;4.97;;;15.30;34.40;;;;;;10445787;28;20231;-65
2023/05/09 06:29:14;;;;;;;5.23;4.77;;;15.40;34.50;;;;;;10444141;28;20647;-64
2023/05/09 06:34:18;;;;;;;5.10;4.60;;;15.40;34.40;;;;;;10443878;28;20239;-65
2023/05/09 06:39:22;;;;;;;5.27;4.77;;;15.50;34.30;;;;;;10445718;28;20703;-65
2023/05/09 06:44:25;;;;;;;7.13;5.00;;;15.60;34.60;;;;;;10439803;28;20237;-65
2023/05/09 06:49:30;;;;;;;5.77;4.97;;;15.70;34.40;;;;;;10448525;28;20229;-65
2023/05/09 06:54:33;;;;;;;5.87;5.33;;;15.80;34.40;;;;;;10446793;28;20744;-65
2023/05/09 06:59:36;;;;;;;6.00;4.63;;;15.90;34.40;;;;;;10446531;28;20237;-64
2023/05/09 07:04:40;;;;;;;4.80;4.40;;;15.90;34.30;;;;;;10447602;28;20237;-64
2023/05/09 07:09:43;;;;;;;5.40;4.90;;;16.00;34.20;;;;;;10444845;28;20728;-64
2023/05/09 07:14:46;;;;;;;5.53;5.03;;;16.10;34.40;;;;;;10445697;28;20608;-64
2023/05/09 07:19:51;;;;;;;6.00;5.23;;;16.20;34.50;;;;;;10453430;28;20732;-65
2023/05/09 07:24:54;;;;;;;5.53;5.13;;;16.40;34.40;;;;;;10452993;28;20251;-65
2023/05/09 07:29:57;;;;;;;5.47;5.07;;;16.60;34.50;;;;;;10457185;28;20871;-65
2023/05/09 07:35:02;;;;;;;5.80;5.37;;;16.70;34.40;;;;;;10444221;28;20233;-64
2023/05/09 07:40:07;;;;;;;5.37;4.90;;;16.90;33.80;;;;;;10452742;28;21030;-65
2023/05/09 07:45:11;;;;;;;5.80;5.40;;;17.10;34.00;;;;;;10450945;28;20224;-65
2023/05/09 07:50:16;;;;;;;5.23;4.80;;;17.30;34.10;;;;;;10453911;28;20709;-65
2023/05/09 07:55:20;;;;;;;5.00;4.60;;;17.40;34.20;;;;;;10443046;28;20232;-65
2023/05/09 08:00:23;;;;;;;6.07;5.30;;;17.60;34.40;;;;;;10447197;28;20224;-65
2023/05/09 08:05:28;;;;;;;5.33;4.93;;;17.90;34.70;;;;;;10446066;28;20262;-65
2023/05/09 08:10:32;;;;;;;6.03;5.50;;;18.10;34.10;;;;;;10450043;28;20704;-65
2023/05/09 08:15:35;;;;;;;4.90;4.53;;;18.40;33.80;;;;;;10451157;28;20233;-65
2023/05/09 08:20:40;;;;;;;5.60;5.10;;;18.50;33.60;;;;;;10453422;28;20331;-65
2023/05/09 08:25:43;;;;;;;5.47;5.03;;;18.70;33.10;;;;;;10449010;28;20233;-65
2023/05/09 08:30:46;;;;;;;5.60;5.20;;;18.90;33.40;;;;;;10447891;28;20232;-65
2023/05/09 08:35:52;;;;;;;5.30;4.90;;;19.10;33.20;;;;;;10446035;28;20232;-65
2023/05/09 08:41:00;;;;;;;7.37;5.27;;;19.30;32.60;;;;;;10445979;28;20700;-65
2023/05/09 08:46:07;;;;;;;5.97;5.47;;;19.50;31.80;;;;;;10442668;28;20227;-65
2023/05/09 08:51:11;;;;;;;5.90;5.40;;;19.70;32.10;;;;;;10451854;28;20233;-65
2023/05/09 08:56:15;;;;;;;5.70;5.30;;;19.90;32.20;;;;;;10449726;28;20248;-65
2023/05/09 09:01:18;;;;;;;6.77;6.13;;;20.10;32.40;;;;;;10447297;28;20584;-65
2023/05/09 09:06:24;;;;;;;6.57;5.97;;;20.20;31.90;;;;;;10444380;28;20319;-65
2023/05/09 09:11:29;;;;;;;6.67;6.03;;;20.30;31.20;;;;;;10452097;28;20231;-65
2023/05/09 09:16:35;;;;;;;6.10;5.60;;;20.50;31.50;;;;;;10441322;28;20716;-65
2023/05/09 09:21:42;;;;;;;6.53;6.00;;;20.60;32.00;;;;;;10443321;28;20228;-64
2023/05/09 09:26:47;;;;;;;6.17;5.67;;;20.80;31.50;;;;;;10444220;28;20239;-65
2023/05/09 09:31:53;;;;;;;7.63;5.70;;;20.90;31.00;;;;;;10449685;28;20299;-65
2023/05/09 09:36:58;;;;;;;6.30;5.80;;;21.10;30.90;;;;;;10439629;28;20701;-64
2023/05/09 09:42:12;;;;;;;5.87;5.47;;;21.20;30.50;;;;;;10442295;28;20236;-65
2023/05/09 09:47:15;;;;;;;5.93;5.43;;;21.20;30.90;;;;;;10445761;28;20220;-65
2023/05/09 09:52:25;;;;;;;6.20;5.67;;;21.30;31.20;;;;;;10450443;28;20938;-65
2023/05/09 09:57:34;;;;;;;5.53;5.13;;;21.40;30.00;;;;;;10442373;28;20240;-65
2023/05/09 10:02:48;;;;;;;6.00;5.50;;;21.60;29.90;;;;;;10442141;28;20224;-65
2023/05/09 10:07:55;;;;;;;6.23;5.83;;;21.80;30.20;;;;;;10446950;28;20224;-65
2023/05/09 10:13:00;;;;;;;6.40;5.80;;;21.90;29.90;;;;;;10439139;28;20224;-65
2023/05/09 10:18:06;;;;;;;6.60;6.10;;;22.10;29.80;;;;;;10444671;28;20274;-64
2023/05/09 10:23:16;;;;;;;5.80;5.30;;;22.30;30.10;;;;;;10448556;28;20585;-64
2023/05/09 10:28:24;;;;;;;5.87;5.47;;;22.40;29.40;;;;;;10441217;28;20228;-65
2023/05/09 10:33:37;;;;;;;6.07;5.57;;;22.60;29.00;;;;;;10442942;28;20229;-65
2023/05/09 10:38:42;;;;;;;5.27;4.87;;;22.70;29.40;;;;;;10443042;28;20239;-65
2023/05/09 10:43:46;;;;;;;5.30;4.90;;;22.90;28.70;;;;;;10437061;28;20235;-65
2023/05/09 10:48:49;;;;;;;4.77;4.47;;;23.00;28.80;;;;;;10450951;28;20645;-65
2023/05/09 10:53:55;;;;;;;4.40;4.00;;;23.00;28.00;;;;;;10452416;28;20236;-68
2023/05/09 10:58:58;;;;;;;5.33;4.93;;;23.00;28.20;;;;;;10458561;28;20232;-68
2023/05/09 11:04:08;;;;;;;5.03;4.70;;;23.00;28.50;;;;;;10450616;28;20223;-68
2023/05/09 11:09:33;;;;;;;4.60;4.20;;;23.00;27.80;;;;;;10454263;28;20216;-67
2023/05/09 11:14:44;;;;;;;5.90;5.47;;;23.00;27.30;;;;;;10452841;28;20871;-68
2023/05/09 11:20:04;;;;;;;6.00;5.50;;;23.00;27.30;;;;;;10448515;28;20247;-68
2023/05/09 11:25:10;;;;;;;5.33;4.93;;;23.00;27.40;;;;;;10449569;28;20220;-67
2023/05/09 11:30:14;;;;;;;5.33;4.93;;;23.00;27.30;;;;;;10452036;28;20224;-67
2023/05/09 11:35:19;;;;;;;5.40;5.00;;;23.10;27.40;;;;;;10448341;28;20245;-67
2023/05/09 11:40:24;;;;;;;4.77;4.43;;;23.20;27.50;;;;;;10450598;28;20678;-65
2023/05/09 11:45:29;;;;;;;5.60;5.10;;;23.20;27.50;;;;;;10443931;28;20237;-65
2023/05/09 11:50:32;;;;;;;5.33;4.93;;;23.20;27.30;;;;;;10441489;28;20700;-65
2023/05/09 11:55:38;;;;;;;5.77;5.27;;;23.30;27.50;;;;;;10448501;28;20236;-65
2023/05/09 12:00:45;;;;;;;6.00;5.50;;;23.30;27.10;;;;;;10446586;28;20232;-64
2023/05/09 12:05:48;;;;;;;6.23;5.63;;;23.30;26.40;;;;;;10450034;28;20377;-65
2023/05/09 12:10:53;;;;;;;5.17;4.67;;;23.30;27.60;;;;;;10446925;28;20256;-65
2023/05/09 12:16:01;;;;;;;5.20;4.70;;;23.30;26.50;;;;;;10449659;28;20228;-65
2023/05/09 12:21:06;;;;;;;4.70;4.30;;;23.30;26.30;;;;;;10403268;28;20295;-67
2023/05/09 12:26:10;;;;;;;4.90;4.53;;;23.30;26.90;;;;;;10411566;28;20229;-68
2023/05/09 12:31:13;;;;;;;5.07;4.67;;;23.30;26.30;;;;;;10407901;28;20230;-67
2023/05/09 12:36:16;;;;;;;4.73;4.40;;;23.40;26.40;;;;;;10404746;28;20315;-68
2023/05/09 12:41:23;;;;;;;4.70;4.30;;;23.40;26.30;;;;;;10424926;28;20229;-68
2023/05/09 12:46:41;;;;;;;4.73;4.33;;;23.50;25.80;;;;;;10432974;28;20913;-68
2023/05/09 12:51:49;;;;;;;5.20;4.80;;;23.60;25.90;;;;;;10435582;28;20610;-68
2023/05/09 12:56:55;;;;;;;5.17;4.67;;;23.60;24.90;;;;;;10442027;28;21212;-68
2023/05/09 13:02:00;;;;;;;4.67;4.37;;;23.70;25.70;;;;;;10439388;28;20254;-68
2023/05/09 13:07:09;;;;;;;4.90;4.50;;;23.70;25.30;;;;;;10433901;28;20220;-67
2023/05/09 13:12:13;;;;;;;3.80;3.50;;;23.70;24.60;;;;;;10434646;28;20235;-68
2023/05/09 13:17:16;;;;;;;4.53;4.13;;;23.80;25.00;;;;;;10445826;28;20231;-67
2023/05/09 13:22:19;;;;;;;4.40;4.10;;;23.90;25.50;;;;;;10441721;28;20229;-67
2023/05/09 13:27:24;;;;;;;3.63;3.33;;;24.10;25.00;;;;;;10446078;28;20236;-67
2023/05/09 13:32:27;;;;;;;4.50;4.10;;;24.10;24.30;;;;;;10441445;28;20236;-70
2023/05/09 13:37:30;;;;;;;3.80;3.50;;;24.20;24.70;;;;;;10443056;28;20740;-71
2023/05/09 13:42:35;;;;;;;3.67;3.47;;;24.30;24.60;;;;;;10445791;28;20241;-70
2023/05/09 13:47:38;;;;;;;3.63;3.33;;;24.30;24.10;;;;;;10443359;28;20836;-71
2023/05/09 13:52:41;;;;;;;4.37;4.07;;;24.40;24.40;;;;;;10442715;28;20792;-70
2023/05/09 13:57:46;;;;;;;3.87;3.57;;;24.40;24.40;;;;;;10442742;28;20217;-65
2023/05/09 14:02:49;;;;;;;3.53;3.23;;;24.40;23.50;;;;;;10446902;28;20240;-65
2023/05/09 14:07:52;;;;;;;4.00;3.70;;;24.40;24.00;;;;;;10444805;28;20243;-65
2023/05/09 14:12:57;;;;;;;3.47;3.17;;;24.40;23.90;;;;;;10430939;28;20234;-65
2023/05/09 14:18:00;;;;;;;3.67;3.37;;;24.50;23.70;;;;;;10445203;28;20232;-68
2023/05/09 14:23:04;;;;;;;3.47;3.27;;;24.50;23.60;;;;;;10437545;28;20220;-67
2023/05/09 14:28:09;;;;;;;4.17;3.07;;;24.50;23.50;;;;;;10441468;28;20249;-68
2023/05/09 14:33:13;;;;;;;3.93;3.27;;;24.50;23.20;;;;;;10441651;28;20716;-68
2023/05/09 14:38:17;;;;;;;2.97;2.77;;;24.50;23.50;;;;;;10445325;28;21057;-68
2023/05/09 14:43:23;;;;;;;3.03;2.83;;;24.50;23.60;;;;;;10443851;28;20236;-68
2023/05/09 14:48:26;;;;;;;3.30;3.00;;;24.60;23.00;;;;;;10445898;28;20334;-69
2023/05/09 14:53:30;;;;;;;3.17;2.97;;;24.70;23.10;;;;;;10438495;28;20760;-68
2023/05/09 14:58:34;;;;;;;4.23;3.73;;;24.70;23.10;;;;;;10440872;28;20349;-71
2023/05/09 15:03:38;;;;;;;3.67;3.37;;;24.70;22.90;;;;;;10442668;28;20243;-71
2023/05/09 15:08:41;;;;;;;3.40;3.20;;;24.70;23.50;;;;;;10440667;28;20264;-71
2023/05/09 15:13:46;;;;;;;3.07;2.83;;;24.70;23.10;;;;;;10441606;28;20233;-70
2023/05/09 15:18:49;;;;;;;3.10;2.90;;;24.80;22.60;;;;;;10437821;28;20631;-71
2023/05/09 15:23:52;;;;;;;3.50;3.20;;;24.80;23.00;;;;;;10445983;28;20224;-71
2023/05/09 15:28:56;;;;;;;3.20;3.00;;;24.80;23.10;;;;;;10443572;28;20239;-71
2023/05/09 15:34:00;;;;;;;4.17;3.77;;;24.90;23.00;;;;;;10438967;28;20243;-71
2023/05/09 15:39:03;;;;;;;3.90;3.60;;;24.90;23.70;;;;;;10457000;28;20217;-72
2023/05/09 15:44:09;;;;;;;4.50;4.20;;;24.90;23.10;;;;;;10444790;28;20602;-70
2023/05/09 15:49:12;;;;;;;5.50;5.10;;;25.00;22.50;;;;;;10452319;28;20240;-71
2023/05/09 15:54:15;;;;;;;4.73;4.33;;;25.00;22.80;;;;;;10451267;28;20229;-72
2023/05/09 15:59:20;;;;;;;5.07;4.67;;;25.00;22.90;;;;;;10449201;28;20271;-71
2023/05/09 16:04:23;;;;;;;4.67;4.37;;;25.00;22.90;;;;;;10451896;28;20239;-71
2023/05/09 16:09:26;;;;;;;4.90;4.50;;;24.90;23.00;;;;;;10451392;28;20236;-71
2023/05/09 16:14:31;;;;;;;4.67;4.37;;;24.90;23.10;;;;;;10446894;28;20229;-71
2023/05/09 16:19:34;;;;;;;5.30;4.90;;;24.90;22.90;;;;;;10455049;28;20318;-71
2023/05/09 16:24:38;;;;;;;7.37;5.53;;;24.90;23.20;;;;;;10452422;28;20754;-71
2023/05/09 16:29:42;;;;;;;5.77;5.27;;;24.90;23.30;;;;;;10452574;28;20248;-71
2023/05/09 16:34:46;;;;;;;5.60;5.20;;;24.90;23.00;;;;;;10447582;28;20224;-71
2023/05/09 16:39:49;;;;;;;5.73;5.23;;;24.90;23.20;;;;;;10448075;28;20439;-72
2023/05/09 16:44:54;;;;;;;5.30;4.90;;;24.90;23.10;;;;;;10443991;28;20240;-71
2023/05/09 16:49:58;;;;;;;5.00;4.60;;;24.90;23.00;;;;;;10444886;28;20307;-71
2023/05/09 16:55:01;;;;;;;5.27;4.80;;;24.90;23.30;;;;;;10447636;28;20243;-71
2023/05/09 17:00:08;;;;;;;5.80;5.30;;;24.90;23.40;;;;;;10442975;28;20832;-72
2023/05/09 17:05:11;;;;;;;6.07;5.43;;;24.80;23.10;;;;;;10449969;28;20312;-71
2023/05/09 17:10:14;;;;;;;6.23;5.73;;;24.80;23.40;;;;;;10449808;28;20243;-72
2023/05/09 17:15:19;;;;;;;6.83;5.27;;;24.70;23.40;;;;;;10445730;28;20217;-71
2023/05/09 17:20:24;;;;;;;7.00;6.33;;;24.60;23.40;;;;;;10445092;28;20228;-71
2023/05/09 17:25:27;;;;;;;6.30;5.70;;;24.60;23.50;;;;;;10447868;28;20239;-71
2023/05/09 17:30:32;;;;;;;6.47;6.07;;;24.50;23.80;;;;;;10447250;28;20228;-71
2023/05/09 17:35:36;;;;;;;6.53;5.97;;;24.40;23.90;;;;;;10448174;28;20243;-65
2023/05/09 17:40:39;;;;;;;5.90;5.40;;;24.40;23.90;;;;;;10450156;27;20854;-65
2023/05/09 17:45:45;;;;;;;6.30;5.77;;;24.30;24.00;;;;;;10443352;28;20251;-65
2023/05/09 17:50:48;;;;;;;5.20;4.80;;;24.20;24.00;;;;;;10442155;28;20287;-65
2023/05/09 17:55:51;;;;;;;5.50;4.90;;;24.10;24.00;;;;;;10441857;28;20233;-65
2023/05/09 18:00:58;;;;;;;5.17;4.70;;;24.00;24.10;;;;;;10440930;28;20232;-65
2023/05/09 18:06:01;;;;;;;5.27;4.83;;;23.90;24.20;;;;;;10440784;28;20229;-65
2023/05/09 18:11:04;;;;;;;4.87;4.50;;;23.90;24.30;;;;;;10439964;28;20247;-65
2023/05/09 18:16:09;;;;;;;5.33;4.83;;;23.80;24.10;;;;;;10443024;28;20752;-65
2023/05/09 18:21:12;;;;;;;4.27;3.97;;;23.80;24.10;;;;;;10443223;28;20223;-65
2023/05/09 18:26:16;;;;;;;5.13;4.73;;;23.70;24.10;;;;;;10444915;28;20561;-65
2023/05/09 18:31:21;;;;;;;4.27;3.97;;;23.60;24.10;;;;;;10443109;28;20623;-65
2023/05/09 18:36:24;;;;;;;4.20;3.90;;;23.50;24.30;;;;;;10443569;28;20228;-65
2023/05/09 18:41:27;;;;;;;4.23;3.83;;;23.50;24.30;;;;;;10445558;28;20240;-65
2023/05/09 18:46:32;;;;;;;4.50;4.10;;;23.40;24.30;;;;;;10441017;28;20236;-65
2023/05/09 18:51:36;;;;;;;4.50;4.10;;;23.40;24.30;;;;;;10444330;28;20233;-65
2023/05/09 18:56:40;;;;;;;4.20;3.80;;;23.30;24.20;;;;;;10442511;28;20285;-65
2023/05/09 19:01:45;;;;;;;4.33;4.03;;;23.30;24.20;;;;;;10440908;28;20753;-65
2023/05/09 19:06:48;;;;;;;3.90;3.60;;;23.20;24.00;;;;;;10443419;28;20228;-65
2023/05/09 19:11:52;;;;;;;3.70;3.50;;;23.00;24.10;;;;;;10449310;28;20765;-66
2023/05/09 19:16:57;;;;;;;4.13;3.83;;;22.90;24.10;;;;;;10449845;28;20232;-66
2023/05/09 19:22:00;;;;;;;3.80;3.50;;;22.80;24.20;;;;;;10452137;28;20240;-65
2023/05/09 19:27:04;;;;;;;4.07;3.77;;;22.70;24.40;;;;;;10452903;28;20228;-66
2023/05/09 19:32:08;;;;;;;4.40;4.00;;;22.60;24.40;;;;;;10451136;28;20236;-66
2023/05/09 19:37:11;;;;;;;5.30;4.27;;;22.60;24.50;;;;;;10451389;28;20229;-66
2023/05/09 19:42:14;;;;;;;4.40;4.00;;;22.50;24.50;;;;;;10452744;28;20225;-66
2023/05/09 19:47:19;;;;;;;4.23;3.93;;;22.50;24.60;;;;;;10458768;28;20221;-65
2023/05/09 19:52:23;;;;;;;5.33;4.63;;;22.40;24.80;;;;;;10448712;28;20229;-66
2023/05/09 19:57:26;;;;;;;5.60;5.10;;;22.40;24.80;;;;;;10455830;28;20767;-65
2023/05/09 20:02:31;;;;;;;4.73;4.33;;;22.30;24.80;;;;;;10456128;28;20272;-70
2023/05/09 20:07:35;;;;;;;4.90;4.50;;;22.30;25.30;;;;;;10452661;28;20306;-65
2023/05/09 20:12:38;;;;;;;4.70;4.30;;;22.20;25.50;;;;;;10451268;28;20627;-65
2023/05/09 20:17:43;;;;;;;4.50;4.20;;;22.20;24.90;;;;;;10448472;28;20720;-65
2023/05/09 20:22:46;;;;;;;4.80;4.40;;;22.20;25.00;;;;;;10439607;28;20241;-65
2023/05/09 20:27:49;;;;;;;5.07;4.67;;;22.10;24.80;;;;;;10443073;28;20591;-65
2023/05/09 20:32:55;;;;;;;4.40;4.10;;;22.00;24.70;;;;;;10446675;28;20233;-65
2023/05/09 20:37:58;;;;;;;4.40;4.00;;;21.90;24.70;;;;;;10442911;28;21011;-65
2023/05/09 20:43:01;;;;;;;4.00;3.50;;;21.70;24.70;;;;;;10440572;28;20229;-66
2023/05/09 20:48:07;;;;;;;3.30;3.10;;;21.60;24.70;;;;;;10444872;28;20217;-66
2023/05/09 20:53:11;;;;;;;3.50;3.30;;;21.50;25.30;;;;;;10439785;28;20492;-66
2023/05/09 20:58:14;;;;;;;4.20;3.80;;;21.40;24.90;;;;;;10449948;28;20229;-66
2023/05/09 21:03:19;;;;;;;3.47;3.27;;;21.40;24.90;;;;;;10443806;28;20239;-65
2023/05/09 21:08:23;;;;;;;3.90;3.60;;;21.40;25.10;;;;;;10440776;28;20315;-66
2023/05/09 21:13:26;;;;;;;3.77;3.40;;;21.30;25.00;;;;;;10441065;28;20229;-66
2023/05/09 21:18:30;;;;;;;7.13;3.97;;;21.30;25.10;;;;;;10440576;28;20249;-66
2023/05/09 21:23:33;;;;;;;3.90;3.60;;;21.30;25.20;;;;;;10444546;28;20239;-66
2023/05/09 21:28:37;;;;;;;4.57;4.17;;;21.30;25.10;;;;;;10449721;28;20233;-65
2023/05/09 21:33:41;;;;;;;4.00;3.70;;;21.20;25.10;;;;;;10445152;28;20609;-65
2023/05/09 21:38:44;;;;;;;4.07;3.77;;;21.10;25.30;;;;;;10450240;28;20233;-65
2023/05/09 21:43:47;;;;;;;4.83;4.00;;;21.00;25.20;;;;;;10451325;28;20702;-65
2023/05/09 21:48:52;;;;;;;4.07;3.77;;;20.90;25.40;;;;;;10450550;28;20232;-66
2023/05/09 21:53:56;;;;;;;4.70;4.30;;;20.80;25.90;;;;;;10442612;28;20599;-66
2023/05/09 21:58:59;;;;;;;5.40;4.17;;;20.80;25.90;;;;;;10447167;28;20238;-65
2023/05/09 22:04:03;;;;;;;3.97;3.60;;;20.80;25.90;;;;;;10442186;28;20329;-66
2023/05/09 22:09:07;;;;;;;3.40;2.90;;;20.70;26.20;;;;;;10449146;28;20563;-66
2023/05/09 22:14:11;;;;;;;3.83;3.53;;;20.80;26.30;;;;;;10445230;28;20232;-66
2023/05/09 22:19:16;;;;;;;3.93;3.63;;;20.80;26.20;;;;;;10448211;28;20220;-66
2023/05/09 22:24:19;;;;;;;4.00;3.50;;;20.80;26.60;;;;;;10448888;28;20239;-66
2023/05/09 22:29:22;;;;;;;4.53;4.13;;;20.80;26.50;;;;;;10460823;28;20298;-66
2023/05/09 22:34:27;;;;;;;3.23;2.93;;;20.90;26.80;;;;;;10446539;28;20243;-66
2023/05/09 22:39:30;;;;;;;4.00;3.70;;;20.80;27.00;;;;;;10442118;28;20751;-65
2023/05/09 22:44:33;;;;;;;3.90;3.60;;;20.80;26.70;;;;;;10443865;28;20312;-65
2023/05/09 22:49:38;;;;;;;4.30;4.00;;;20.60;26.50;;;;;;10442860;28;20228;-65
2023/05/09 22:54:41;;;;;;;4.63;4.30;;;20.50;27.00;;;;;;10447016;28;20748;-66
2023/05/09 22:59:44;;;;;;;5.00;4.63;;;20.40;27.10;;;;;;10450699;28;20225;-66
2023/05/09 23:04:49;;;;;;;6.17;5.57;;;20.30;27.60;;;;;;10442619;28;20236;-66
2023/05/09 23:09:52;;;;;;;5.73;5.23;;;20.30;28.70;;;;;;10445265;28;20704;-65
2023/05/09 23:14:55;;;;;;;6.57;6.07;;;20.20;28.50;;;;;;10445957;28;20259;-65
2023/05/09 23:20:00;;;;;;;6.53;5.93;;;20.10;29.00;;;;;;10443183;28;20322;-65
2023/05/09 23:25:03;;;;;;;5.80;5.30;;;20.00;29.70;;;;;;10446321;28;20236;-66
2023/05/09 23:30:08;;;;;;;6.03;4.83;;;20.00;29.50;;;;;;10439934;28;20221;-66
2023/05/09 23:35:13;;;;;;;4.63;4.33;;;19.90;30.00;;;;;;10446258;28;20228;-65
2023/05/09 23:40:16;;;;;;;5.63;5.10;;;19.90;30.10;;;;;;10447712;28;20271;-66
2023/05/09 23:45:20;;;;;;;4.23;3.93;;;19.90;30.10;;;;;;10443775;28;20665;-65
2023/05/09 23:50:24;;;;;;;4.73;4.40;;;19.90;30.50;;;;;;10444198;28;20256;-65
2023/05/09 23:55:28;;;;;;;3.80;3.50;;;19.80;31.50;;;;;;10443355;28;20228;-66
